createdAt,value
2023-01-25T00:01:07.179Z,5.80
2023-01-25T00:03:35.286Z,6.00
2023-01-25T00:06:03.289Z,6.23
2023-01-25T00:08:31.256Z,6.53
2023-01-25T00:10:59.092Z,5.90
2023-01-25T00:13:27.533Z,6.83
2023-01-25T00:16:00.551Z,5.90
2023-01-25T00:18:28.545Z,5.47
2023-01-25T00:20:56.443Z,6.10
2023-01-25T00:23:24.262Z,7.80
2023-01-25T00:25:58.915Z,6.93
2023-01-25T00:28:27.001Z,7.20
2023-01-25T00:30:58.593Z,7.13
2023-01-25T00:33:49.180Z,6.43
2023-01-25T00:36:38.671Z,6.50
2023-01-25T00:39:07.377Z,5.60
2023-01-25T00:41:35.319Z,6.80
2023-01-25T00:44:03.537Z,6.07
2023-01-25T00:46:31.409Z,5.80
2023-01-25T00:48:59.310Z,6.40
2023-01-25T00:51:27.170Z,6.20
2023-01-25T00:53:55.289Z,5.93
2023-01-25T00:56:23.175Z,5.60
2023-01-25T00:58:52.262Z,7.63
2023-01-25T01:01:20.930Z,4.50
2023-01-25T01:03:48.818Z,6.20
2023-01-25T01:06:16.698Z,6.57
2023-01-25T01:08:44.560Z,5.37
2023-01-25T01:11:13.192Z,6.07
2023-01-25T01:13:41.229Z,5.97
2023-01-25T01:16:12.015Z,5.67
2023-01-25T01:18:43.712Z,6.15
2023-01-25T01:21:13.022Z,6.00
2023-01-25T01:23:41.665Z,7.17
2023-01-25T01:26:14.542Z,6.83
2023-01-25T01:28:43.013Z,6.70
2023-01-25T01:31:23.765Z,6.93
2023-01-25T01:34:10.741Z,6.03
2023-01-25T01:36:39.564Z,8.02
2023-01-25T01:39:07.598Z,6.10
2023-01-25T01:41:35.942Z,6.20
2023-01-25T01:44:04.659Z,6.00
2023-01-25T01:46:37.431Z,6.27
2023-01-25T01:49:17.446Z,6.77
2023-01-25T01:51:51.950Z,5.90
2023-01-25T01:54:34.689Z,6.80
2023-01-25T01:57:10.967Z,7.10
2023-01-25T02:00:04.983Z,6.37
2023-01-25T02:02:41.379Z,8.20
2023-01-25T02:05:41.086Z,7.90
2023-01-25T02:08:13.590Z,7.77
2023-01-25T02:10:42.920Z,6.13
2023-01-25T02:13:11.609Z,7.43
2023-01-25T02:15:45.184Z,8.53
2023-01-25T02:18:13.819Z,6.63
2023-01-25T02:20:42.684Z,6.23
2023-01-25T02:23:47.533Z,6.83
2023-01-25T02:26:17.326Z,7.70
2023-01-25T02:28:52.479Z,6.03
2023-01-25T02:31:24.919Z,5.77
2023-01-25T02:33:53.589Z,5.97
2023-01-25T02:36:29.784Z,7.97
2023-01-25T02:39:03.126Z,6.37
2023-01-25T02:41:41.372Z,6.83
2023-01-25T02:44:29.096Z,7.27
2023-01-25T02:46:57.810Z,8.10
2023-01-25T02:49:25.686Z,7.07
2023-01-25T02:51:58.501Z,6.30
2023-01-25T02:54:27.038Z,7.53
2023-01-25T02:56:55.958Z,6.03
2023-01-25T02:59:26.440Z,6.65
2023-01-25T03:01:58.428Z,8.07
2023-01-25T03:04:26.476Z,8.30
2023-01-25T03:06:54.511Z,8.77
2023-01-25T03:09:22.440Z,7.47
2023-01-25T03:11:51.689Z,4.97
2023-01-25T03:14:22.340Z,7.38
2023-01-25T03:16:51.019Z,5.80
2023-01-25T03:19:22.162Z,7.82
2023-01-25T03:21:50.154Z,7.20
2023-01-25T03:24:19.023Z,7.27
2023-01-25T03:27:07.357Z,7.17
2023-01-25T03:29:55.467Z,5.90
2023-01-25T03:34:54.504Z,6.87
2023-01-25T03:37:22.469Z,8.50
2023-01-25T03:39:50.964Z,6.33
2023-01-25T03:42:21.465Z,5.27
2023-01-25T03:44:53.815Z,7.00
2023-01-25T03:47:21.909Z,6.87
2023-01-25T03:49:49.887Z,7.30
2023-01-25T03:52:20.016Z,6.03
2023-01-25T03:54:50.746Z,6.05
2023-01-25T03:57:19.858Z,8.43
2023-01-25T03:59:56.152Z,7.57
2023-01-25T04:02:24.215Z,7.87
2023-01-25T04:04:52.143Z,6.93
2023-01-25T04:07:22.112Z,6.97
2023-01-25T04:09:51.267Z,7.13
2023-01-25T04:12:19.721Z,7.27
2023-01-25T04:14:48.154Z,7.23
2023-01-25T04:17:21.796Z,8.13
2023-01-25T04:19:53.641Z,7.03
2023-01-25T04:22:26.090Z,7.87
2023-01-25T04:24:56.606Z,8.38
2023-01-25T04:27:24.947Z,9.17
2023-01-25T04:29:59.592Z,7.73
2023-01-25T04:32:28.345Z,7.20
2023-01-25T04:34:57.412Z,6.10
2023-01-25T04:37:28.929Z,5.93
2023-01-25T04:39:59.763Z,7.30
2023-01-25T04:42:31.684Z,6.13
2023-01-25T04:45:00.217Z,7.37
2023-01-25T04:47:28.291Z,6.17
2023-01-25T04:49:56.203Z,6.63
2023-01-25T04:52:31.096Z,7.23
2023-01-25T04:54:59.113Z,6.53
2023-01-25T04:57:27.209Z,5.10
2023-01-25T04:59:55.132Z,6.00
2023-01-25T05:02:27.304Z,6.57
2023-01-25T05:04:55.553Z,5.80
2023-01-25T05:07:23.619Z,6.53
2023-01-25T05:09:53.517Z,6.63
2023-01-25T05:12:25.439Z,6.27
2023-01-25T05:14:56.902Z,6.27
2023-01-25T05:17:24.960Z,8.33
2023-01-25T05:19:52.949Z,6.93
2023-01-25T05:22:23.874Z,7.05
2023-01-25T05:24:54.938Z,7.18
2023-01-25T05:27:23.578Z,6.93
2023-01-25T05:29:54.593Z,7.25
2023-01-25T05:32:28.017Z,6.23
2023-01-25T05:34:58.789Z,7.67
2023-01-25T05:37:28.029Z,5.90
2023-01-25T05:40:01.748Z,7.47
2023-01-25T05:42:31.060Z,6.80
2023-01-25T05:45:00.375Z,6.23
2023-01-25T05:47:29.504Z,7.67
2023-01-25T05:49:57.457Z,6.80
2023-01-25T05:52:46.780Z,9.00
2023-01-25T05:55:15.691Z,9.53
2023-01-25T05:57:43.805Z,8.77
2023-01-25T06:00:12.313Z,7.83
2023-01-25T06:02:43.475Z,6.97
2023-01-25T06:05:16.655Z,8.53
2023-01-25T06:07:44.777Z,6.67
2023-01-25T06:10:13.224Z,6.70
2023-01-25T06:12:41.172Z,8.07
2023-01-25T06:15:09.935Z,8.10
2023-01-25T06:17:37.985Z,8.17
2023-01-25T06:20:19.976Z,8.57
2023-01-25T06:23:06.238Z,7.90
2023-01-25T06:25:34.068Z,10.33
2023-01-25T06:28:01.913Z,9.07
2023-01-25T06:30:29.736Z,8.90
2023-01-25T06:33:01.703Z,7.93
2023-01-25T06:35:31.028Z,7.30
2023-01-25T06:38:00.413Z,6.47
2023-01-25T06:40:29.157Z,8.57
2023-01-25T06:43:10.513Z,10.20
2023-01-25T06:48:06.478Z,7.60
2023-01-25T06:50:34.307Z,6.73
2023-01-25T06:53:02.184Z,6.83
2023-01-25T06:55:30.053Z,9.77
2023-01-25T06:58:00.657Z,9.50
2023-01-25T07:00:28.722Z,8.18
2023-01-25T07:02:56.767Z,12.50
2023-01-25T07:05:24.669Z,8.40
2023-01-25T07:07:52.548Z,8.57
2023-01-25T07:10:20.378Z,9.80
2023-01-25T07:12:48.324Z,10.30
2023-01-25T07:15:16.196Z,11.93
2023-01-25T07:17:44.078Z,10.80
2023-01-25T07:20:12.299Z,10.07
2023-01-25T07:22:40.155Z,10.00
2023-01-25T07:25:08.749Z,11.90
2023-01-25T07:27:36.870Z,8.70
2023-01-25T07:30:05.152Z,11.10
2023-01-25T07:32:33.434Z,10.00
2023-01-25T07:35:01.288Z,10.13
2023-01-25T07:37:29.298Z,10.47
2023-01-25T07:39:58.164Z,10.10
2023-01-25T07:42:26.027Z,9.67
2023-01-25T07:45:12.447Z,11.43
2023-01-25T07:47:41.152Z,9.30
2023-01-25T07:50:09.847Z,8.43
2023-01-25T07:52:37.849Z,10.10
2023-01-25T07:55:06.279Z,11.00
2023-01-25T07:57:34.138Z,10.63
2023-01-25T08:00:02.101Z,10.27
2023-01-25T08:02:40.661Z,12.20
2023-01-25T08:05:09.375Z,9.27
2023-01-25T08:07:37.564Z,11.17
2023-01-25T08:10:07.070Z,10.07
2023-01-25T08:12:35.213Z,11.13
2023-01-25T08:15:03.240Z,9.40
2023-01-25T08:17:32.768Z,11.73
2023-01-25T08:20:01.581Z,12.63
2023-01-25T08:22:29.728Z,10.27
2023-01-25T08:25:04.187Z,10.17
2023-01-25T08:27:32.115Z,10.83
2023-01-25T08:29:59.919Z,12.10
2023-01-25T08:32:27.791Z,9.27
2023-01-25T08:34:55.634Z,11.00
2023-01-25T08:37:23.523Z,9.67
2023-01-25T08:39:51.364Z,11.23
2023-01-25T08:42:20.563Z,8.90
2023-01-25T08:44:48.821Z,10.53
2023-01-25T08:47:20.880Z,10.60
2023-01-25T08:49:49.044Z,10.40
2023-01-25T08:52:16.908Z,10.93
2023-01-25T08:54:45.055Z,12.20
2023-01-25T08:57:15.982Z,11.00
2023-01-25T08:59:44.604Z,11.55
2023-01-25T09:02:12.881Z,10.80
2023-01-25T09:04:40.722Z,12.47
2023-01-25T09:07:08.812Z,10.40
2023-01-25T09:09:36.685Z,8.90
2023-01-25T09:12:04.868Z,11.07
2023-01-25T09:14:32.695Z,9.73
2023-01-25T09:17:00.593Z,12.00
2023-01-25T09:19:28.530Z,12.03
2023-01-25T09:21:56.540Z,11.63
2023-01-25T09:24:24.454Z,11.13
2023-01-25T09:26:59.363Z,10.17
2023-01-25T09:29:27.927Z,14.60
2023-01-25T09:31:55.874Z,14.17
2023-01-25T09:34:45.338Z,8.20
2023-01-25T09:37:13.198Z,12.63
2023-01-25T09:39:41.274Z,12.23
2023-01-25T09:42:24.235Z,9.77
2023-01-25T09:44:58.270Z,11.37
2023-01-25T09:47:59.452Z,9.67
2023-01-25T09:51:08.984Z,10.13
2023-01-25T09:53:47.458Z,11.00
2023-01-25T09:56:27.723Z,9.80
2023-01-25T09:59:11.791Z,10.43
2023-01-25T10:01:57.768Z,10.83
2023-01-25T10:04:27.062Z,10.47
2023-01-25T10:07:06.489Z,9.57
2023-01-25T10:09:50.575Z,11.17
2023-01-25T10:12:18.978Z,10.97
2023-01-25T10:14:47.253Z,8.90
2023-01-25T10:17:37.348Z,10.40
2023-01-25T10:20:05.489Z,11.23
2023-01-25T10:22:42.451Z,11.17
2023-01-25T10:25:49.793Z,11.07
2023-01-25T10:28:41.197Z,10.40
2023-01-25T10:31:38.995Z,9.88
2023-01-25T10:34:27.876Z,10.93
2023-01-25T10:37:10.793Z,7.90
2023-01-25T10:39:42.520Z,10.10
2023-01-25T10:42:12.803Z,9.77
2023-01-25T10:44:40.693Z,11.20
2023-01-25T10:47:31.938Z,9.70
2023-01-25T10:49:59.904Z,9.50
2023-01-25T10:52:32.535Z,10.70
2023-01-25T10:55:16.771Z,12.13
2023-01-25T10:57:57.797Z,10.73
2023-01-25T11:00:41.465Z,8.30
2023-01-25T11:03:40.301Z,9.03
2023-01-25T11:06:09.257Z,8.77
2023-01-25T11:08:39.561Z,7.07
2023-01-25T11:11:31.234Z,7.63
2023-01-25T11:13:59.753Z,7.13
2023-01-25T11:16:34.491Z,8.13
2023-01-25T11:19:03.435Z,8.33
2023-01-25T11:21:33.929Z,8.27
2023-01-25T11:24:15.886Z,8.83
2023-01-25T11:26:44.419Z,8.33
2023-01-25T11:29:20.586Z,8.67
2023-01-25T11:31:53.611Z,7.00
2023-01-25T11:34:25.717Z,8.37
2023-01-25T11:37:06.024Z,10.13
2023-01-25T11:39:37.004Z,10.10
2023-01-25T11:42:26.303Z,6.70
2023-01-25T11:45:09.479Z,9.47
2023-01-25T11:47:43.885Z,7.10
2023-01-25T11:50:36.538Z,9.77
2023-01-25T11:53:38.516Z,6.20
2023-01-25T11:56:19.107Z,8.57
2023-01-25T11:58:52.783Z,8.90
2023-01-25T12:02:20.209Z,9.53
2023-01-25T12:04:53.935Z,10.40
2023-01-25T12:07:42.203Z,8.93
2023-01-25T12:10:24.915Z,6.73
2023-01-25T12:13:30.136Z,6.83
2023-01-25T12:16:15.569Z,10.50
2023-01-25T12:19:37.478Z,9.00
2023-01-25T12:25:09.789Z,9.27
2023-01-25T12:27:37.662Z,9.33
2023-01-25T12:30:21.494Z,8.07
2023-01-25T12:33:14.415Z,8.93
2023-01-25T12:35:56.583Z,7.90
2023-01-25T12:38:38.755Z,8.50
2023-01-25T12:41:40.373Z,6.83
2023-01-25T12:44:13.558Z,6.35
2023-01-25T12:46:55.639Z,10.83
2023-01-25T12:49:49.037Z,9.73
2023-01-25T12:52:33.523Z,6.37
2023-01-25T12:55:04.947Z,8.30
2023-01-25T13:00:30.720Z,9.23
2023-01-25T13:03:11.904Z,8.13
2023-01-25T13:05:47.380Z,10.00
2023-01-25T13:08:31.106Z,7.90
2023-01-25T13:11:11.363Z,10.03
2023-01-25T13:13:39.476Z,11.00
2023-01-25T13:16:28.786Z,9.93
2023-01-25T13:18:57.527Z,9.10
2023-01-25T13:21:45.077Z,8.30
2023-01-25T13:24:17.804Z,9.47
2023-01-25T13:26:53.247Z,7.40
2023-01-25T13:29:35.897Z,11.90
2023-01-25T13:32:25.638Z,10.37
2023-01-25T13:34:54.948Z,8.05
2023-01-25T13:37:31.973Z,10.27
2023-01-25T13:40:25.536Z,9.60
2023-01-25T13:43:05.302Z,8.00
2023-01-25T13:45:36.146Z,9.33
2023-01-25T13:48:17.353Z,9.15
2023-01-25T13:50:53.557Z,9.57
2023-01-25T13:53:24.514Z,10.57
2023-01-25T13:55:57.869Z,9.70
2023-01-25T13:58:34.430Z,9.40
2023-01-25T14:01:08.367Z,7.27
2023-01-25T14:03:54.973Z,8.97
2023-01-25T14:06:38.530Z,9.57
2023-01-25T14:09:20.732Z,9.60
2023-01-25T14:12:13.549Z,9.20
2023-01-25T14:14:42.840Z,10.80
2023-01-25T14:17:20.855Z,8.97
2023-01-25T14:19:52.553Z,9.93
2023-01-25T14:22:34.061Z,8.63
2023-01-25T14:25:12.300Z,9.07
2023-01-25T14:28:00.799Z,10.40
2023-01-25T14:30:32.386Z,8.73
2023-01-25T14:33:14.894Z,9.87
2023-01-25T14:35:55.727Z,6.53
2023-01-25T14:38:31.792Z,6.50
2023-01-25T14:41:14.027Z,10.80
2023-01-25T14:43:51.930Z,10.77
2023-01-25T14:46:31.188Z,10.20
2023-01-25T14:49:27.598Z,9.40
2023-01-25T14:52:05.676Z,7.37
2023-01-25T14:54:56.360Z,7.77
2023-01-25T14:57:35.096Z,9.23
2023-01-25T15:00:24.354Z,8.50
2023-01-25T15:02:56.565Z,9.57
2023-01-25T15:05:30.961Z,9.50
2023-01-25T15:08:16.481Z,9.70
2023-01-25T15:11:18.904Z,10.33
2023-01-25T15:13:47.460Z,8.93
2023-01-25T15:16:36.055Z,10.20
2023-01-25T15:19:04.145Z,8.60
2023-01-25T15:21:33.216Z,10.10
2023-01-25T15:24:06.330Z,9.27
2023-01-25T15:26:35.746Z,8.00
2023-01-25T15:29:20.789Z,9.03
2023-01-25T15:31:51.028Z,9.20
2023-01-25T15:34:25.782Z,11.17
2023-01-25T15:36:53.641Z,10.30
2023-01-25T15:39:21.808Z,8.73
2023-01-25T15:41:49.757Z,8.80
2023-01-25T15:44:20.008Z,8.83
2023-01-25T15:46:51.646Z,8.10
2023-01-25T15:49:25.276Z,9.77
2023-01-25T15:51:54.090Z,9.13
2023-01-25T15:54:22.149Z,9.60
2023-01-25T15:56:55.549Z,10.87
2023-01-25T15:59:23.812Z,7.00
2023-01-25T16:01:52.678Z,9.17
2023-01-25T16:04:20.624Z,8.80
2023-01-25T16:06:55.218Z,10.43
2023-01-25T16:09:24.216Z,8.70
2023-01-25T16:12:01.226Z,10.33
2023-01-25T16:14:31.318Z,10.60
2023-01-25T16:17:02.899Z,11.90
2023-01-25T16:19:31.811Z,8.17
2023-01-25T16:21:59.796Z,10.13
2023-01-25T16:24:27.750Z,11.17
2023-01-25T16:26:57.554Z,11.03
2023-01-25T16:29:25.852Z,10.77
2023-01-25T16:31:55.608Z,9.13
2023-01-25T16:34:23.833Z,8.83
2023-01-25T16:36:52.828Z,8.90
2023-01-25T16:39:27.004Z,8.00
2023-01-25T16:41:58.162Z,7.33
2023-01-25T16:44:27.018Z,9.18
2023-01-25T16:47:01.266Z,11.57
2023-01-25T16:49:33.370Z,11.20
2023-01-25T16:52:03.275Z,8.97
2023-01-25T16:54:56.152Z,9.33
2023-01-25T16:57:24.120Z,8.53
2023-01-25T16:59:53.065Z,7.17
2023-01-25T17:02:20.956Z,12.33
2023-01-25T17:04:48.893Z,10.93
2023-01-25T17:07:18.241Z,11.93
2023-01-25T17:09:46.229Z,13.03
2023-01-25T17:12:14.139Z,9.77
2023-01-25T17:14:42.023Z,10.23
2023-01-25T17:17:09.878Z,9.37
2023-01-25T17:19:37.775Z,11.50
2023-01-25T17:22:05.620Z,7.77
2023-01-25T17:24:35.833Z,9.57
2023-01-25T17:27:05.064Z,14.47
2023-01-25T17:29:33.030Z,14.40
2023-01-25T17:32:00.926Z,12.80
2023-01-25T17:34:28.834Z,11.07
2023-01-25T17:36:56.777Z,12.10
2023-01-25T17:39:24.725Z,8.70
2023-01-25T17:41:52.699Z,9.30
2023-01-25T17:44:23.010Z,12.50
2023-01-25T17:46:51.407Z,10.80
2023-01-25T17:49:19.929Z,8.57
2023-01-25T17:51:47.829Z,11.53
2023-01-25T17:54:15.998Z,9.77
2023-01-25T17:56:43.926Z,13.50
2023-01-25T17:59:16.009Z,8.37
2023-01-25T18:01:44.107Z,10.20
2023-01-25T18:04:13.277Z,10.90
2023-01-25T18:06:41.381Z,11.00
2023-01-25T18:09:09.583Z,11.93
2023-01-25T18:11:39.905Z,10.77
2023-01-25T18:14:16.612Z,13.07
2023-01-25T18:16:44.978Z,8.80
2023-01-25T18:19:13.415Z,11.63
2023-01-25T18:21:42.480Z,11.07
2023-01-25T18:24:36.115Z,12.77
2023-01-25T18:27:11.400Z,9.87
2023-01-25T18:30:20.817Z,12.10
2023-01-25T18:32:48.746Z,9.67
2023-01-25T18:35:16.673Z,11.73
2023-01-25T18:37:46.516Z,10.30
2023-01-25T18:40:14.820Z,11.80
2023-01-25T18:42:42.964Z,9.17
2023-01-25T18:45:11.954Z,11.63
2023-01-25T18:47:40.012Z,11.07
2023-01-25T18:50:08.737Z,12.33
2023-01-25T18:52:36.811Z,9.90
2023-01-25T18:55:04.867Z,11.13
2023-01-25T18:57:33.114Z,10.60
2023-01-25T19:00:01.217Z,13.53
2023-01-25T19:02:29.126Z,12.33
2023-01-25T19:05:00.298Z,12.20
2023-01-25T19:07:28.189Z,11.55
2023-01-25T19:09:56.027Z,12.00
2023-01-25T19:12:23.956Z,11.30
2023-01-25T19:14:51.896Z,15.23
2023-01-25T19:17:19.768Z,11.73
2023-01-25T19:19:47.715Z,12.80
2023-01-25T19:22:15.615Z,10.70
2023-01-25T19:24:43.579Z,12.33
2023-01-25T19:27:11.447Z,13.17
2023-01-25T19:29:39.431Z,13.30
2023-01-25T19:32:07.415Z,10.60
2023-01-25T19:34:35.436Z,13.67
2023-01-25T19:37:03.321Z,12.90
2023-01-25T19:39:31.505Z,9.10
2023-01-25T19:41:59.399Z,11.17
2023-01-25T19:44:27.356Z,9.10
2023-01-25T19:46:55.236Z,8.17
2023-01-25T19:49:23.197Z,8.73
2023-01-25T19:51:53.056Z,11.83
2023-01-25T19:54:21.746Z,12.47
2023-01-25T19:56:50.156Z,10.50
2023-01-25T19:59:21.525Z,12.10
2023-01-25T20:01:50.224Z,13.13
2023-01-25T20:04:21.848Z,10.70
2023-01-25T20:06:50.788Z,12.23
2023-01-25T20:09:20.307Z,12.43
2023-01-25T20:11:48.314Z,10.67
2023-01-25T20:14:17.363Z,10.70
2023-01-25T20:16:46.982Z,11.97
2023-01-25T20:19:14.979Z,13.40
2023-01-25T20:21:42.845Z,11.70
2023-01-25T20:24:10.902Z,10.43
2023-01-25T20:26:40.194Z,12.40
2023-01-25T20:29:09.007Z,9.43
2023-01-25T20:31:42.472Z,13.67
2023-01-25T20:34:16.906Z,10.73
2023-01-25T20:36:45.720Z,10.03
2023-01-25T20:39:15.537Z,13.07
2023-01-25T20:41:43.514Z,10.80
2023-01-25T20:44:14.132Z,10.77
2023-01-25T20:46:43.030Z,11.55
2023-01-25T20:49:15.496Z,8.27
2023-01-25T20:51:44.109Z,10.67
2023-01-25T20:54:12.359Z,9.53
2023-01-25T20:56:40.346Z,10.80
2023-01-25T20:59:08.714Z,8.97
2023-01-25T21:01:37.365Z,8.20
2023-01-25T21:04:07.797Z,11.03
2023-01-25T21:06:38.763Z,9.97
2023-01-25T21:09:07.861Z,10.43
2023-01-25T21:11:39.175Z,11.07
2023-01-25T21:14:08.458Z,11.32
2023-01-25T21:16:36.541Z,13.40
2023-01-25T21:19:06.483Z,11.10
2023-01-25T21:21:34.808Z,13.23
2023-01-25T21:24:05.130Z,13.37
2023-01-25T21:26:34.844Z,11.00
2023-01-25T21:29:03.479Z,14.77
2023-01-25T21:31:34.276Z,9.87
2023-01-25T21:34:06.684Z,10.65
2023-01-25T21:36:37.030Z,12.03
2023-01-25T21:39:05.013Z,10.53
2023-01-25T21:41:34.699Z,12.03
2023-01-25T21:44:21.773Z,11.30
2023-01-25T21:47:16.277Z,11.87
2023-01-25T21:49:56.133Z,8.83
2023-01-25T21:52:24.077Z,9.03
2023-01-25T21:54:52.007Z,6.90
2023-01-25T21:57:20.478Z,13.13
2023-01-25T21:59:48.815Z,12.53
2023-01-25T22:02:17.080Z,8.63
2023-01-25T22:04:45.024Z,8.67
2023-01-25T22:07:12.989Z,13.00
2023-01-25T22:09:40.930Z,8.87
2023-01-25T22:12:09.333Z,10.93
2023-01-25T22:14:37.302Z,9.23
2023-01-25T22:17:05.368Z,10.20
2023-01-25T22:19:33.286Z,10.10
2023-01-25T22:22:01.308Z,10.70
2023-01-25T22:24:29.171Z,7.80
2023-01-25T22:27:18.135Z,7.60
2023-01-25T22:29:46.023Z,10.20
2023-01-25T22:32:13.883Z,9.97
2023-01-25T22:34:42.864Z,10.70
2023-01-25T22:37:13.928Z,11.80
2023-01-25T22:39:41.878Z,10.68
2023-01-25T22:42:09.746Z,11.10
2023-01-25T22:44:37.562Z,9.87
2023-01-25T22:47:05.419Z,11.10
2023-01-25T22:49:33.449Z,10.17
2023-01-25T22:52:01.306Z,10.17
2023-01-25T22:54:29.182Z,10.80
2023-01-25T22:56:57.053Z,13.23
2023-01-25T22:59:24.951Z,8.67
2023-01-25T23:01:52.887Z,10.47
2023-01-25T23:04:20.839Z,11.47
2023-01-25T23:06:49.286Z,12.40
2023-01-25T23:09:17.194Z,9.93
2023-01-25T23:11:45.086Z,9.07
2023-01-25T23:14:31.486Z,8.40
2023-01-25T23:17:17.928Z,10.37
2023-01-25T23:19:45.930Z,10.60
2023-01-25T23:22:14.835Z,9.97
2023-01-25T23:24:43.199Z,10.93
2023-01-25T23:27:12.427Z,9.47
2023-01-25T23:29:40.293Z,7.40
2023-01-25T23:32:08.281Z,11.13
2023-01-25T23:34:37.460Z,9.20
2023-01-25T23:37:05.391Z,9.97
2023-01-25T23:39:33.396Z,9.20
2023-01-25T23:42:01.305Z,10.93
2023-01-25T23:44:29.140Z,11.03
2023-01-25T23:46:56.958Z,12.73
2023-01-25T23:49:24.802Z,13.00
2023-01-25T23:51:52.621Z,8.97
2023-01-25T23:54:20.564Z,12.00
2023-01-25T23:56:49.617Z,11.10
2023-01-25T23:59:17.528Z,12.30
